Time;durP1;ratioP1;P1;durP2;ratioP2;P2;SDS_P1;SDS_P2;PMS_P1;PMS_P2;Temp;Humidity;BMP_temperature;BMP_pressure;BME280_temperature;BME280_humidity;BME280_pressure;Samples;Min_cycle;Max_cycle;Signal;HPM_P1;HPM_P2
2022/05/02 00:00:08;;;;;;;7.05;4.00;;;;;;;13.20;64.71;100376.44;4454711;32;20504;-68
2022/05/02 00:02:36;;;;;;;4.65;3.90;;;;;;;13.12;64.57;100366.03;4454588;32;20123;-68
2022/05/02 00:05:05;;;;;;;4.68;3.95;;;;;;;13.16;65.12;100363.25;4454549;32;20131;-68
2022/05/02 00:07:33;;;;;;;9.50;3.90;;;;;;;13.12;64.56;100358.94;4454508;32;20504;-68
2022/05/02 00:10:02;;;;;;;8.45;4.57;;;;;;;13.10;63.88;100357.22;4454330;32;20097;-68
2022/05/02 00:12:29;;;;;;;5.60;3.90;;;;;;;13.12;64.82;100360.72;4454264;32;20084;-68
2022/05/02 00:14:56;;;;;;;7.50;4.57;;;;;;;13.24;63.88;100362.25;4454263;32;20131;-68
2022/05/02 00:17:56;;;;;;;6.87;4.45;;;;;;;13.20;64.78;100357.91;4454231;32;20130;-68
2022/05/02 00:20:10;;;;;;;8.55;4.07;;;;;;;13.22;63.97;100364.03;4454320;32;20119;-68
2022/05/02 00:22:40;;;;;;;8.10;4.12;;;;;;;13.15;65.39;100358.03;4454308;32;20164;-68
2022/05/02 00:25:08;;;;;;;8.27;4.22;;;;;;;13.10;64.88;100358.09;4454194;32;20439;-68
2022/05/02 00:27:38;;;;;;;8.13;4.57;;;;;;;13.08;65.56;100359.06;4454298;32;20164;-68
2022/05/02 00:30:07;;;;;;;7.50;4.35;;;;;;;13.01;64.59;100360.09;4454369;32;20089;-68
2022/05/02 00:32:34;;;;;;;5.68;3.80;;;;;;;12.99;63.71;100361.91;4454175;32;20088;-68
2022/05/02 00:35:03;;;;;;;6.12;3.80;;;;;;;12.99;62.49;100354.84;4454362;32;20085;-68
2022/05/02 00:37:30;;;;;;;5.20;3.70;;;;;;;12.92;61.82;100362.03;4453843;32;20100;-68
2022/05/02 00:39:57;;;;;;;6.47;4.70;;;;;;;12.82;63.40;100375.47;4454187;32;20612;-68
2022/05/02 00:42:25;;;;;;;5.10;3.95;;;;;;;12.71;66.25;100370.41;4454220;32;20084;-68
2022/05/02 00:44:52;;;;;;;5.87;4.53;;;;;;;12.72;66.28;100366.91;4454087;32;20631;-68
2022/05/02 00:47:20;;;;;;;7.20;4.45;;;;;;;12.71;65.66;100373.06;4454090;32;20432;-68
2022/05/02 00:49:51;;;;;;;8.15;4.47;;;;;;;12.63;67.24;100372.37;4454258;32;20096;-68
2022/05/02 00:52:19;;;;;;;12.68;5.05;;;;;;;12.66;66.41;100378.47;4454381;32;20534;-68
2022/05/02 00:54:46;;;;;;;7.18;5.07;;;;;;;12.74;65.73;100372.13;4454041;32;20135;-68
2022/05/02 00:57:16;;;;;;;4.60;3.97;;;;;;;12.70;66.46;100379.25;4453915;32;20429;-68
2022/05/02 00:59:44;;;;;;;6.10;4.43;;;;;;;12.64;68.50;100377.59;4453933;32;20369;-68
2022/05/02 01:02:14;;;;;;;7.57;5.32;;;;;;;12.67;67.54;100381.97;4453874;32;20365;-67
2022/05/02 01:04:42;;;;;;;8.65;5.43;;;;;;;12.64;68.01;100379.37;4453980;32;20386;-67
2022/05/02 01:07:19;;;;;;;9.30;5.55;;;;;;;12.64;68.43;100380.25;4453840;32;20487;-68
2022/05/02 01:09:52;;;;;;;6.57;5.00;;;;;;;12.66;68.68;100378.47;4453856;32;20073;-68
2022/05/02 01:12:22;;;;;;;8.75;5.20;;;;;;;12.64;67.62;100374.97;4453890;32;20106;-68
2022/05/02 01:14:52;;;;;;;7.65;5.70;;;;;;;12.72;66.13;100382.75;4453695;32;20104;-68
2022/05/02 01:17:19;;;;;;;6.97;5.10;;;;;;;12.57;69.04;100376.00;4453818;32;20165;-68
2022/05/02 01:19:47;;;;;;;7.07;5.37;;;;;;;12.54;70.67;100376.03;4453804;32;20126;-68
2022/05/02 01:22:15;;;;;;;7.32;4.90;;;;;;;12.56;70.31;100376.91;4453721;32;20088;-68
2022/05/02 01:24:48;;;;;;;7.25;5.53;;;;;;;12.53;69.02;100376.09;4453464;32;20446;-68
2022/05/02 01:27:16;;;;;;;9.93;6.22;;;;;;;12.40;71.50;100376.34;4453521;32;20092;-68
2022/05/02 01:29:45;;;;;;;11.00;6.97;;;;;;;12.33;69.79;100382.66;4453621;32;20460;-68
2022/05/02 01:32:15;;;;;;;6.62;4.80;;;;;;;12.32;69.29;100367.69;4453448;32;20123;-68
2022/05/02 01:34:43;;;;;;;11.02;5.82;;;;;;;12.30;70.61;100379.19;4453503;32;20180;-68
2022/05/02 01:37:14;;;;;;;8.90;5.80;;;;;;;12.20;71.91;100371.44;4453670;32;20161;-68
2022/05/02 01:39:42;;;;;;;13.32;5.37;;;;;;;12.16;73.98;100387.38;4453374;32;20570;-68
2022/05/02 01:42:11;;;;;;;11.38;5.95;;;;;;;12.19;71.52;100395.22;4453517;32;20148;-68
2022/05/02 01:44:39;;;;;;;8.55;6.12;;;;;;;12.13;74.09;100403.28;4453216;32;20174;-68
2022/05/02 01:47:08;;;;;;;10.25;6.35;;;;;;;12.11;74.02;100391.84;4453078;32;20447;-68
2022/05/02 01:49:36;;;;;;;8.60;6.75;;;;;;;12.17;73.46;100375.91;4453734;32;20104;-68
2022/05/02 01:52:03;;;;;;;7.15;5.97;;;;;;;12.21;74.54;100390.78;4455340;32;20154;-67
2022/05/02 01:54:30;;;;;;;10.48;5.15;;;;;;;12.12;76.93;100385.66;4455614;32;20096;-68
2022/05/02 01:56:58;;;;;;;7.45;5.85;;;;;;;12.20;74.39;100394.34;4455426;32;20119;-68
2022/05/02 01:59:25;;;;;;;10.50;6.20;;;;;;;12.26;74.69;100388.94;4455271;32;20089;-68
2022/05/02 02:01:52;;;;;;;18.27;6.25;;;;;;;12.24;76.52;100393.37;4455320;32;20428;-68
2022/05/02 02:07:07;;;;;;;;;;;;;;;12.35;74.65;100387.91;4423230;32;20100;-68
2022/05/02 02:09:35;;;;;;;8.52;5.60;;;;;;;12.38;75.60;100393.13;4455619;32;20325;-68
2022/05/02 02:12:02;;;;;;;8.15;5.43;;;;;;;12.35;73.84;100388.75;4455197;32;20105;-68
2022/05/02 02:14:29;;;;;;;8.50;5.40;;;;;;;12.30;76.06;100390.63;4455054;32;20476;-68
2022/05/02 02:16:56;;;;;;;6.75;5.43;;;;;;;12.30;75.12;100389.75;4455049;32;20180;-68
2022/05/02 02:19:23;;;;;;;6.45;5.60;;;;;;;12.46;75.90;100385.03;4455437;32;20134;-68
2022/05/02 02:21:51;;;;;;;5.15;4.62;;;;;;;12.37;75.66;100391.38;4455187;32;20093;-68
2022/05/02 02:24:18;;;;;;;6.85;5.40;;;;;;;12.32;73.50;100380.88;4455028;32;20236;-68
2022/05/02 02:26:45;;;;;;;10.68;5.37;;;;;;;12.35;75.46;100388.75;4455320;32;20109;-68
2022/05/02 02:29:12;;;;;;;10.75;5.15;;;;;;;12.33;76.97;100381.75;4455208;32;20092;-68
2022/05/02 02:31:39;;;;;;;8.63;4.93;;;;;;;12.28;74.23;100379.22;4455075;32;20489;-68
2022/05/02 02:34:07;;;;;;;6.22;4.87;;;;;;;12.36;73.46;100372.00;4455037;32;20092;-68
2022/05/02 02:36:34;;;;;;;5.72;4.78;;;;;;;12.48;71.46;100368.25;4455086;32;20104;-68
2022/05/02 02:39:01;;;;;;;6.57;4.57;;;;;;;12.57;72.16;100369.84;4454975;32;20980;-68
2022/05/02 02:41:28;;;;;;;6.60;4.55;;;;;;;12.57;70.67;100367.19;4455111;32;20120;-68
2022/05/02 02:43:55;;;;;;;5.30;4.12;;;;;;;12.52;72.13;100367.28;4454992;32;20089;-68
2022/05/02 02:46:23;;;;;;;4.72;3.95;;;;;;;12.47;70.80;100368.28;4455007;32;20180;-68
2022/05/02 02:48:50;;;;;;;6.43;3.95;;;;;;;12.47;69.94;100365.63;4455104;32;20080;-68
2022/05/02 02:51:17;;;;;;;6.57;3.78;;;;;;;12.57;68.71;100364.53;4454898;32;20097;-68
2022/05/02 02:53:44;;;;;;;10.60;3.58;;;;;;;12.55;69.45;100363.72;4454969;32;20115;-68
2022/05/02 02:56:11;;;;;;;5.18;3.30;;;;;;;12.52;67.25;100362.00;4454897;32;20425;-68
2022/05/02 02:58:38;;;;;;;8.13;3.80;;;;;;;12.61;65.54;100361.81;4454851;32;20080;-68
2022/05/02 03:01:06;;;;;;;4.05;3.65;;;;;;;12.71;64.97;100369.56;4454728;32;20723;-68
2022/05/02 03:03:33;;;;;;;5.97;3.47;;;;;;;12.79;64.49;100368.50;4454862;32;20089;-68
2022/05/02 03:06:03;;;;;;;5.60;3.60;;;;;;;12.86;62.99;100377.16;4454974;32;20118;-68
2022/05/02 03:08:40;;;;;;;9.73;3.50;;;;;;;12.94;62.60;100369.09;4454844;32;20458;-68
2022/05/02 03:11:07;;;;;;;3.67;3.12;;;;;;;12.96;61.63;100370.75;4454916;32;20096;-68
2022/05/02 03:13:35;;;;;;;5.03;3.53;;;;;;;12.99;61.04;100367.19;4454843;32;20160;-68
2022/05/02 03:16:03;;;;;;;6.78;3.37;;;;;;;13.01;61.91;100373.34;4454763;32;20225;-68
2022/05/02 03:18:31;;;;;;;8.10;3.40;;;;;;;12.99;61.17;100375.13;4452925;32;20085;-68
2022/05/02 03:20:58;;;;;;;4.97;3.42;;;;;;;12.98;63.52;100373.41;4454657;32;20503;-68
2022/05/02 03:23:26;;;;;;;4.53;3.58;;;;;;;12.92;65.09;100369.97;4454736;32;20101;-68
2022/05/02 03:25:54;;;;;;;6.75;3.60;;;;;;;12.90;65.51;100366.50;4455008;32;20853;-68
2022/05/02 03:28:22;;;;;;;5.97;4.12;;;;;;;12.88;64.41;100362.13;4454816;32;20124;-68
2022/05/02 03:30:49;;;;;;;5.78;3.75;;;;;;;12.90;64.37;100365.63;4454748;32;20092;-68
2022/05/02 03:33:16;;;;;;;4.07;3.67;;;;;;;12.89;64.03;100361.22;4454638;32;20093;-68
2022/05/02 03:35:43;;;;;;;5.20;3.15;;;;;;;12.88;64.60;100363.00;4454778;32;20592;-68
2022/05/02 03:38:10;;;;;;;5.00;3.87;;;;;;;12.88;62.80;100367.44;4464413;32;20097;-68
2022/05/02 03:40:37;;;;;;;5.85;3.25;;;;;;;12.91;62.29;100354.16;4470334;32;20118;-68
2022/05/02 03:43:05;;;;;;;5.65;3.42;;;;;;;12.95;63.13;100357.59;4470004;32;20127;-68
2022/05/02 03:45:32;;;;;;;8.43;3.50;;;;;;;13.02;61.65;100345.97;4471334;32;20475;-68
2022/05/02 03:47:59;;;;;;;6.25;3.42;;;;;;;13.03;61.48;100356.50;4471212;32;20159;-68
2022/05/02 03:50:27;;;;;;;10.25;5.35;;;;;;;13.07;60.60;100354.66;4471012;32;20118;-68
2022/05/02 03:52:54;;;;;;;6.03;3.70;;;;;;;13.13;60.23;100359.81;4470111;32;20092;-68
2022/05/02 03:55:22;;;;;;;7.40;3.83;;;;;;;13.19;60.20;100357.03;4470701;32;20092;-68
2022/05/02 03:57:49;;;;;;;14.68;4.40;;;;;;;13.22;61.07;100362.25;4470948;32;20167;-68
2022/05/02 04:00:17;;;;;;;7.28;4.07;;;;;;;13.26;66.38;100358.66;4470204;32;20089;-68
2022/05/02 04:02:51;;;;;;;5.22;3.65;;;;;;;13.24;63.35;100360.47;4468938;32;20105;-68
2022/05/02 04:05:19;;;;;;;7.12;5.22;;;;;;;13.21;65.23;100365.78;4454593;32;20140;-68
2022/05/02 04:07:46;;;;;;;12.98;7.10;;;;;;;13.19;65.63;100364.97;4454148;32;20167;-68
2022/05/02 04:10:13;;;;;;;8.02;5.57;;;;;;;13.21;66.11;100364.94;4454052;32;20152;-68
2022/05/02 04:12:40;;;;;;;7.12;4.90;;;;;;;13.25;68.28;100363.97;4452229;32;20459;-68
2022/05/02 04:15:11;;;;;;;9.73;4.62;;;;;;;13.28;67.47;100362.13;4453725;32;20519;-68
2022/05/02 04:17:40;;;;;;;9.68;4.60;;;;;;;13.36;65.79;100365.50;4453834;32;20106;-68
2022/05/02 04:20:08;;;;;;;8.32;5.05;;;;;;;13.38;65.80;100360.16;4454276;32;20464;-68
2022/05/02 04:22:37;;;;;;;4.78;4.28;;;;;;;13.34;68.43;100366.41;4456677;32;20440;-68
2022/05/02 04:25:05;;;;;;;13.10;4.70;;;;;;;13.38;67.48;100361.00;4469386;32;20212;-68
2022/05/02 04:27:32;;;;;;;13.73;5.00;;;;;;;13.47;70.02;100367.00;4453815;32;20168;-68
2022/05/02 04:30:00;;;;;;;12.18;4.10;;;;;;;13.47;69.49;100367.00;4454112;32;20093;-68
2022/05/02 04:32:27;;;;;;;9.32;4.45;;;;;;;13.54;68.95;100373.91;4454166;32;20160;-68
2022/05/02 04:34:56;;;;;;;6.32;4.45;;;;;;;13.62;63.90;100372.78;4453788;32;20160;-68
2022/05/02 04:37:23;;;;;;;6.30;3.72;;;;;;;13.71;63.98;100377.00;4454103;32;20153;-68
2022/05/02 04:39:51;;;;;;;11.38;5.07;;;;;;;13.88;64.48;100376.56;4454037;32;20108;-68
2022/05/02 04:42:18;;;;;;;16.23;5.15;;;;;;;13.96;66.13;100377.25;4453983;32;20108;-68
2022/05/02 04:44:45;;;;;;;11.12;5.47;;;;;;;14.01;65.45;100374.47;4454079;32;20109;-68
2022/05/02 04:47:14;;;;;;;10.50;5.55;;;;;;;13.95;64.82;100385.22;4453914;32;20147;-68
2022/05/02 04:49:41;;;;;;;12.45;5.80;;;;;;;14.01;65.78;100393.88;4453962;32;20465;-68
2022/05/02 04:52:08;;;;;;;11.95;5.03;;;;;;;14.03;66.01;100396.50;4454206;32;20120;-68
2022/05/02 04:54:35;;;;;;;8.77;5.07;;;;;;;14.11;66.38;100403.34;4453862;32;20184;-68
2022/05/02 04:57:03;;;;;;;11.12;5.10;;;;;;;14.23;65.91;100401.28;4460497;32;20076;-68
2022/05/02 04:59:30;;;;;;;11.68;5.72;;;;;;;14.23;66.58;100401.28;4469897;32;20137;-68
2022/05/02 05:01:58;;;;;;;7.10;5.72;;;;;;;14.25;66.39;100404.75;4454352;32;20168;-68
2022/05/02 05:04:26;;;;;;;16.15;5.40;;;;;;;14.35;65.95;100401.81;4454381;32;20749;-68
2022/05/02 05:06:53;;;;;;;10.65;6.35;;;;;;;14.39;66.57;100407.03;4459275;32;20092;-68
2022/05/02 05:09:20;;;;;;;19.73;10.90;;;;;;;14.41;66.06;100408.72;4447384;32;20116;-68
2022/05/02 05:12:11;;;;;;;17.42;6.90;;;;;;;14.48;66.25;100412.06;4469736;32;20108;-68
2022/05/02 05:17:51;;;;;;;7.65;5.35;;;;;;;14.67;66.26;100410.69;4459327;32;20089;-68
2022/05/02 05:20:38;;;;;;;15.32;5.75;;;;;;;14.71;67.26;100409.69;4454532;32;20164;-68
2022/05/02 05:23:26;;;;;;;11.65;5.85;;;;;;;14.75;69.10;100402.53;4461728;32;20895;-68
2022/05/02 05:26:10;;;;;;;8.90;6.35;;;;;;;14.86;68.63;100408.38;4471118;32;20119;-68
2022/05/02 05:28:49;;;;;;;10.80;5.37;;;;;;;14.92;67.19;100412.66;4471741;32;20084;-68
2022/05/02 05:31:30;;;;;;;15.88;5.78;;;;;;;15.11;67.38;100410.31;4463566;32;20088;-68
2022/05/02 05:34:06;;;;;;;6.47;4.85;;;;;;;15.20;66.62;100407.38;4454983;32;20089;-68
2022/05/02 05:36:48;;;;;;;19.08;5.20;;;;;;;15.38;64.29;100406.81;4455212;32;20539;-68
2022/05/02 05:39:33;;;;;;;8.13;5.00;;;;;;;15.55;63.11;100403.63;4455582;32;20081;-68
2022/05/02 05:42:38;;;;;;;13.13;5.82;;;;;;;15.61;62.39;100407.84;4464415;32;20159;-68
2022/05/02 05:45:17;;;;;;;8.63;5.35;;;;;;;15.59;62.14;100399.97;4456091;32;20089;-68
2022/05/02 05:47:51;;;;;;;9.85;4.95;;;;;;;15.68;60.25;100398.81;4462792;32;20250;-68
2022/05/02 05:50:22;;;;;;;11.73;5.15;;;;;;;15.75;60.96;100387.91;4470976;32;20126;-68
2022/05/02 05:53:11;;;;;;;14.45;5.40;;;;;;;15.71;61.77;100388.94;4471227;32;20142;-68
2022/05/02 05:56:03;;;;;;;16.25;6.62;;;;;;;15.90;61.36;100388.34;4471192;32;20755;-67
2022/05/02 05:58:45;;;;;;;9.70;5.25;;;;;;;15.88;60.59;100393.72;4471149;32;20092;-68
2022/05/02 06:01:39;;;;;;;8.05;4.90;;;;;;;15.91;61.40;100387.44;4470855;32;20739;-68
2022/05/02 06:04:09;;;;;;;8.88;4.47;;;;;;;15.86;61.20;100394.66;4471108;32;20088;-68
2022/05/02 06:06:36;;;;;;;9.88;4.68;;;;;;;15.96;60.32;100394.31;4470887;32;20104;-68
2022/05/02 06:09:06;;;;;;;9.07;5.07;;;;;;;15.80;60.92;100400.22;4471307;32;20176;-68
2022/05/02 06:11:35;;;;;;;8.13;4.93;;;;;;;15.91;60.00;100401.59;4471530;32;20477;-67
2022/05/02 06:14:03;;;;;;;5.07;4.47;;;;;;;16.03;60.61;100394.97;4471547;32;20201;-68
2022/05/02 06:19:27;;;;;;;9.20;4.55;;;;;;;15.81;59.08;100397.50;4471164;32;20785;-67
2022/05/02 06:21:55;;;;;;;9.48;5.62;;;;;;;15.90;59.11;100404.28;4471197;32;20175;-68
2022/05/02 06:24:26;;;;;;;18.30;5.87;;;;;;;16.00;59.73;100405.69;4471356;32;20114;-68
2022/05/02 06:26:55;;;;;;;15.70;5.47;;;;;;;16.04;60.37;100402.00;4471275;32;20173;-68
2022/05/02 06:29:24;;;;;;;17.62;5.95;;;;;;;16.05;62.69;100406.44;4471447;32;20779;-68
2022/05/02 06:31:54;;;;;;;15.32;6.40;;;;;;;16.03;63.73;100405.59;4471060;32;20143;-68
2022/05/02 06:34:28;;;;;;;14.65;6.53;;;;;;;16.00;65.62;100413.69;4471240;32;20080;-68
2022/05/02 06:37:08;;;;;;;10.07;7.00;;;;;;;15.86;69.31;100410.63;4470981;32;20088;-68
2022/05/02 06:39:55;;;;;;;11.98;7.82;;;;;;;15.68;70.33;100410.28;4471094;32;20202;-67
2022/05/02 06:42:31;;;;;;;12.25;7.95;;;;;;;15.58;73.41;100410.59;4471247;32;20147;-68
2022/05/02 06:45:22;;;;;;;18.95;7.93;;;;;;;15.52;76.71;100422.31;4471382;32;20096;-68
2022/05/02 06:48:19;;;;;;;13.30;7.95;;;;;;;15.29;78.86;100423.00;4470839;32;20104;-68
2022/05/02 06:50:55;;;;;;;20.88;7.45;;;;;;;15.24;79.24;100424.97;4436139;32;20160;-68
2022/05/02 06:53:25;;;;;;;11.23;7.78;;;;;;;15.36;79.36;100429.00;4462890;32;20150;-69
2022/05/02 06:55:58;;;;;;;13.13;7.35;;;;;;;15.43;77.49;100430.56;4455307;32;20146;-68
2022/05/02 06:58:51;;;;;;;12.07;7.60;;;;;;;15.40;75.83;100435.97;4455458;32;20096;-68
2022/05/02 07:01:47;;;;;;;12.32;7.78;;;;;;;15.36;77.60;100436.97;4447014;32;20109;-68
2022/05/02 07:04:35;;;;;;;12.40;8.65;;;;;;;15.41;76.40;100433.28;4455421;32;20416;-68
2022/05/02 07:07:03;;;;;;;15.57;9.20;;;;;;;15.50;77.51;100432.97;4455104;32;20103;-68
2022/05/02 07:09:40;;;;;;;16.35;9.20;;;;;;;15.62;76.80;100436.16;4461315;32;20146;-68
2022/05/02 07:12:22;;;;;;;23.62;10.60;;;;;;;15.72;75.67;100430.56;4461460;32;20205;-68
2022/05/02 07:15:01;;;;;;;17.00;10.55;;;;;;;15.62;77.93;100444.13;4461159;32;20081;-67
2022/05/02 07:17:46;;;;;;;27.10;12.20;;;;;;;15.85;77.53;100433.66;4464218;32;20084;-67
2022/05/02 07:20:23;;;;;;;15.75;11.55;;;;;;;15.97;77.13;100430.63;4470514;32;21114;-68
2022/05/02 07:23:02;;;;;;;26.92;12.15;;;;;;;16.21;76.46;100436.87;4470495;32;20096;-67
2022/05/02 07:25:31;;;;;;;21.62;14.60;;;;;;;16.25;76.22;100440.28;4469490;32;20131;-67
2022/05/02 07:28:29;;;;;;;25.92;13.27;;;;;;;16.39;75.91;100442.47;4469352;32;20096;-67
2022/05/02 07:30:58;;;;;;;23.27;11.65;;;;;;;16.60;73.58;100438.19;4469394;32;20092;-68
2022/05/02 07:33:36;;;;;;;16.55;10.05;;;;;;;17.01;70.95;100427.88;4469047;32;20230;-67
2022/05/02 07:36:04;;;;;;;24.73;9.60;;;;;;;17.29;69.02;100427.69;4469535;32;20153;-67
2022/05/02 07:38:34;;;;;;;10.90;8.27;;;;;;;17.73;66.62;100427.69;4469028;32;20088;-67
2022/05/02 07:41:23;;;;;;;12.57;7.97;;;;;;;18.05;63.33;100421.06;4470564;32;20176;-67
2022/05/02 07:43:58;;;;;;;21.73;7.10;;;;;;;18.14;64.47;100421.53;4449592;32;20229;-67
2022/05/02 07:46:35;;;;;;;9.65;6.78;;;;;;;18.30;63.56;100420.88;4470551;32;20182;-68
2022/05/02 07:49:07;;;;;;;13.80;7.15;;;;;;;18.53;60.22;100420.75;4470058;32;20163;-68
2022/05/02 07:51:50;;;;;;;11.85;6.40;;;;;;;18.86;59.35;100418.38;4464425;32;20113;-67
2022/05/02 07:54:25;;;;;;;9.25;6.30;;;;;;;19.07;58.57;100413.87;4454550;32;20089;-69
2022/05/02 07:57:00;;;;;;;10.05;6.70;;;;;;;19.34;56.93;100416.19;4454977;32;20112;-69
2022/05/02 07:59:36;;;;;;;9.73;5.85;;;;;;;19.33;56.29;100419.81;4456619;32;20101;-69
2022/05/02 08:02:05;;;;;;;10.85;6.05;;;;;;;19.32;57.12;100418.91;4446789;32;20157;-69
2022/05/02 08:04:36;;;;;;;6.78;5.45;;;;;;;19.40;57.66;100417.69;4463406;32;20156;-69
2022/05/02 08:07:32;;;;;;;8.02;5.60;;;;;;;19.66;56.44;100420.00;4462447;32;20076;-68
2022/05/02 08:10:17;;;;;;;9.55;5.62;;;;;;;19.56;59.40;100413.34;4462927;32;20142;-68
2022/05/02 08:12:51;;;;;;;6.23;5.10;;;;;;;19.48;56.10;100413.72;4460620;32;20177;-68
2022/05/02 08:15:49;;;;;;;6.47;5.03;;;;;;;19.37;56.67;100417.84;4468076;32;20224;-68
2022/05/02 08:18:50;;;;;;;15.88;5.00;;;;;;;19.69;55.04;100419.87;4467620;32;20782;-68
2022/05/02 08:21:37;;;;;;;6.28;4.45;;;;;;;19.58;56.73;100411.47;4470652;32;20100;-68
2022/05/02 08:27:55;;;;;;;9.70;5.35;;;;;;;19.53;53.27;100410.81;4390448;32;20188;-68
2022/05/02 08:30:24;;;;;;;9.20;4.78;;;;;;;19.33;55.12;100411.78;4389522;32;20094;-69
2022/05/02 08:33:24;;;;;;;10.38;4.70;;;;;;;19.34;54.65;100409.03;4454816;32;20156;-68
2022/05/02 08:36:00;;;;;;;5.97;4.43;;;;;;;19.52;52.46;100409.97;4446734;32;20168;-68
2022/05/02 08:38:37;;;;;;;13.80;4.95;;;;;;;19.48;54.06;100411.06;4456361;32;20088;-68
2022/05/02 08:41:30;;;;;;;4.95;3.58;;;;;;;19.32;54.31;100415.38;4467823;32;20076;-68
2022/05/02 08:44:03;;;;;;;9.30;3.92;;;;;;;19.17;52.22;100410.78;4460781;32;20093;-67
2022/05/02 08:46:48;;;;;;;7.03;3.70;;;;;;;19.40;52.38;100402.56;4470252;32;20156;-67
2022/05/02 08:50:07;;;;;;;6.40;3.20;;;;;;;19.46;52.17;100409.38;4465119;32;20112;-68
2022/05/02 08:53:02;;;;;;;5.70;3.80;;;;;;;19.48;53.37;100410.19;4443592;32;20096;-68
2022/05/02 08:56:06;;;;;;;13.10;3.85;;;;;;;19.15;52.56;100409.97;4455181;32;20160;-68
2022/05/02 08:58:42;;;;;;;4.03;3.62;;;;;;;18.98;53.00;100402.78;4461505;32;20100;-68
2022/05/02 09:01:40;;;;;;;5.65;3.40;;;;;;;18.96;53.33;100405.50;4465940;32;20203;-69
2022/05/02 09:04:10;;;;;;;6.70;3.47;;;;;;;18.91;52.68;100401.31;4459033;32;20106;-68
2022/05/02 09:06:38;;;;;;;5.75;3.40;;;;;;;18.91;52.61;100404.00;4454103;32;20111;-69
2022/05/02 09:09:17;;;;;;;6.47;3.72;;;;;;;19.05;52.81;100402.41;4463822;32;20399;-68
2022/05/02 09:12:06;;;;;;;3.65;2.92;;;;;;;19.21;51.82;100405.22;4469985;32;20484;-68
2022/05/02 09:15:06;;;;;;;4.57;3.50;;;;;;;19.34;52.36;100400.16;4469709;32;20095;-68
2022/05/02 09:18:10;;;;;;;6.72;3.15;;;;;;;19.24;51.60;100398.88;4470030;32;20080;-68
2022/05/02 09:20:53;;;;;;;4.68;2.83;;;;;;;19.31;53.90;100398.50;4463566;32;20488;-68
2022/05/02 09:23:29;;;;;;;4.50;2.70;;;;;;;19.37;52.83;100402.69;4460224;32;20168;-68
2022/05/02 09:26:22;;;;;;;8.32;3.08;;;;;;;19.67;52.47;100399.50;4467396;32;20088;-67
2022/05/02 09:29:36;;;;;;;3.47;2.50;;;;;;;19.79;53.22;100388.22;4463934;32;20182;-68
2022/05/02 09:32:33;;;;;;;8.18;2.85;;;;;;;20.18;49.96;100392.47;4460346;32;20138;-67
2022/05/02 09:35:06;;;;;;;3.65;2.20;;;;;;;20.40;50.03;100389.53;4460236;32;20123;-68
2022/05/02 09:37:46;;;;;;;4.00;2.60;;;;;;;20.68;48.48;100392.50;4459636;32;20110;-67
2022/05/02 09:40:15;;;;;;;2.15;2.00;;;;;;;20.87;48.81;100389.69;4459567;32;20104;-67
2022/05/02 09:43:20;;;;;;;4.03;2.20;;;;;;;21.11;47.34;100392.00;4461627;32;20109;-67
2022/05/02 09:49:47;;;;;;;4.78;2.05;;;;;;;21.52;46.04;100394.16;4460011;32;20115;-69
2022/05/02 09:52:18;;;;;;;3.35;1.87;;;;;;;21.16;47.84;100384.53;4438444;32;20158;-69
2022/05/02 09:58:08;;;;;;;10.55;1.67;;;;;;;21.34;45.54;100386.22;4454639;32;20104;-68
2022/05/02 10:01:07;;;;;;;4.65;1.75;;;;;;;21.77;43.94;100380.19;4459695;32;20088;-69
2022/05/02 10:03:54;;;;;;;3.92;1.75;;;;;;;21.86;42.98;100369.81;4445803;32;20107;-68
2022/05/02 10:06:38;;;;;;;6.00;1.77;;;;;;;22.17;44.69;100368.87;4455328;32;20131;-69
2022/05/02 10:09:33;;;;;;;4.15;1.85;;;;;;;22.23;42.46;100364.97;4453521;32;20515;-69
2022/05/02 10:12:07;;;;;;;3.58;1.98;;;;;;;22.36;43.78;100363.25;4454964;32;20081;-69
2022/05/02 10:14:49;;;;;;;3.55;1.90;;;;;;;22.44;41.79;100360.13;4454615;32;20396;-69
2022/05/02 10:17:50;;;;;;;2.58;1.73;;;;;;;22.34;41.45;100358.97;4454580;32;20727;-69
2022/05/02 10:20:19;;;;;;;2.15;1.45;;;;;;;22.91;42.24;100354.44;4459144;32;20491;-70
2022/05/02 10:23:36;;;;;;;2.42;2.20;;;;;;;23.09;40.96;100349.75;4462678;32;20110;-70
2022/05/02 10:26:18;;;;;;;9.82;2.05;;;;;;;22.86;39.76;100350.31;4387216;32;20094;-70
2022/05/02 10:29:02;;;;;;;10.43;2.17;;;;;;;23.25;39.74;100340.69;4389187;32;20286;-70
2022/05/02 10:31:34;;;;;;;2.72;1.77;;;;;;;23.37;41.30;100334.50;4443181;32;20096;-69
2022/05/02 10:34:04;;;;;;;2.60;1.70;;;;;;;23.59;40.23;100337.50;4471170;32;20132;-68
2022/05/02 10:36:38;;;;;;;4.20;1.67;;;;;;;24.12;38.33;100339.38;4470668;32;20085;-69
2022/05/02 10:39:15;;;;;;;4.45;1.58;;;;;;;24.07;37.15;100335.19;4469813;32;20120;-69
2022/05/02 10:41:48;;;;;;;2.35;1.62;;;;;;;24.34;37.03;100336.91;4469502;32;20156;-69
2022/05/02 10:44:17;;;;;;;9.52;1.70;;;;;;;23.97;37.18;100339.47;4469010;32;20882;-69
2022/05/02 10:46:46;;;;;;;4.22;1.70;;;;;;;23.63;38.27;100332.75;4461243;32;20129;-69
2022/05/02 10:49:24;;;;;;;3.90;1.62;;;;;;;23.57;36.93;100330.50;4467348;32;20111;-69
2022/05/02 10:52:01;;;;;;;2.25;1.80;;;;;;;23.50;37.93;100334.53;4460093;32;20822;-69
2022/05/02 10:54:28;;;;;;;3.20;1.90;;;;;;;23.21;38.78;100333.78;4459137;32;20487;-70
2022/05/02 10:56:59;;;;;;;3.58;1.62;;;;;;;23.64;39.54;100331.81;4471270;32;20139;-69
2022/05/02 10:59:38;;;;;;;7.90;1.80;;;;;;;22.98;36.61;100338.84;4450041;32;20113;-69
2022/05/02 11:02:32;;;;;;;2.35;2.03;;;;;;;22.45;38.12;100334.12;4455514;32;20792;-69
2022/05/02 11:05:07;;;;;;;1.92;1.65;;;;;;;22.53;37.64;100337.19;4455211;32;20088;-69
2022/05/02 11:08:09;;;;;;;4.55;1.90;;;;;;;22.86;38.84;100335.09;4454871;32;20101;-69
2022/05/02 11:10:43;;;;;;;2.55;1.60;;;;;;;22.82;38.00;100338.03;4455183;32;20093;-68
2022/05/02 11:13:31;;;;;;;6.15;1.77;;;;;;;23.41;38.34;100330.66;4459512;32;20120;-68
2022/05/02 11:16:16;;;;;;;9.07;2.00;;;;;;;24.00;37.98;100330.31;4461467;32;20154;-68
2022/05/02 11:22:09;;;;;;;6.37;1.40;;;;;;;24.96;35.23;100334.28;4453946;32;20100;-68
2022/05/02 11:24:52;;;;;;;3.25;2.00;;;;;;;25.34;33.36;100327.97;4454379;32;20085;-68
2022/05/02 11:27:31;;;;;;;4.32;1.95;;;;;;;25.31;32.16;100333.56;4460751;32;20084;-69
2022/05/02 11:30:07;;;;;;;12.27;1.75;;;;;;;25.89;34.09;100328.34;4458724;32;20679;-69
2022/05/02 11:32:54;;;;;;;6.82;1.50;;;;;;;26.83;30.90;100330.00;4459833;32;20867;-69
2022/05/02 11:35:28;;;;;;;5.00;2.05;;;;;;;28.23;29.62;100319.19;4460195;32;20108;-70
2022/05/02 11:38:20;;;;;;;4.93;1.70;;;;;;;27.64;29.52;100317.91;4462096;32;20497;-69
2022/05/02 11:41:08;;;;;;;2.85;1.60;;;;;;;28.10;29.20;100317.56;4459158;32;20152;-69
2022/05/02 11:43:38;;;;;;;;;;;;;;;28.48;29.73;100320.66;4442095;32;20104;-69
2022/05/02 11:46:18;;;;;;;12.18;4.07;;;;;;;28.04;30.13;100307.25;4452559;32;20003;-69
2022/05/02 11:49:04;;;;;;;4.85;2.62;;;;;;;28.16;30.16;100307.19;4453156;32;20436;-69
2022/05/02 11:51:48;;;;;;;5.03;1.87;;;;;;;27.92;30.02;100299.34;4461895;32;20476;-69
2022/05/02 11:54:27;;;;;;;4.40;1.98;;;;;;;27.61;29.77;100302.78;4452881;32;20464;-69
2022/05/02 11:57:14;;;;;;;1.67;1.50;;;;;;;27.32;30.44;100299.81;4465582;32;20171;-69
2022/05/02 12:00:05;;;;;;;2.12;1.80;;;;;;;26.91;30.63;100300.47;4469988;32;20077;-69
2022/05/02 12:02:48;;;;;;;6.22;1.60;;;;;;;26.81;29.05;100299.50;4469842;32;20085;-69
2022/05/02 12:05:35;;;;;;;3.67;1.67;;;;;;;26.13;31.44;100299.44;4469676;32;20096;-69
2022/05/02 12:08:06;;;;;;;10.27;2.65;;;;;;;27.34;31.35;100288.84;4469999;32;20184;-70
2022/05/02 12:10:34;;;;;;;6.70;1.70;;;;;;;28.67;28.06;100292.78;4469194;32;20072;-69
2022/05/02 12:13:04;;;;;;;3.45;2.00;;;;;;;29.62;25.71;100279.59;4453807;32;214589;-69
2022/05/02 12:15:32;;;;;;;4.55;2.05;;;;;;;30.38;24.93;100286.91;4466205;32;20173;-70
2022/05/02 12:18:04;;;;;;;4.40;1.90;;;;;;;30.25;23.97;100270.94;4461833;32;20109;-69
2022/05/02 12:20:40;;;;;;;4.62;2.05;;;;;;;30.12;27.48;100270.38;4449886;32;20119;-69